createdAt,value
2023-02-26T00:00:01.341Z,86.42
2023-02-26T00:05:01.248Z,86.98
2023-02-26T00:10:01.175Z,87.81
2023-02-26T00:15:01.141Z,88.03
2023-02-26T00:20:01.049Z,87.92
2023-02-26T00:25:00.994Z,88.44
2023-02-26T00:30:00.926Z,88.44
2023-02-26T00:35:00.862Z,88.44
2023-02-26T00:40:00.795Z,88.65
2023-02-26T00:45:00.735Z,88.54
2023-02-26T00:50:00.666Z,88.44
2023-02-26T00:55:00.613Z,89.17
2023-02-26T01:00:00.538Z,89.69
2023-02-26T01:05:00.481Z,90.74
2023-02-26T01:10:00.417Z,91.51
2023-02-26T01:15:00.364Z,92.55
2023-02-26T01:20:00.285Z,93.08
2023-02-26T01:25:00.227Z,93.71
2023-02-26T01:30:00.162Z,94.12
2023-02-26T01:35:00.137Z,94.79
2023-02-26T01:40:00.032Z,95.00
2023-02-26T01:44:59.968Z,95.00
2023-02-26T01:49:59.898Z,94.90
2023-02-26T01:54:59.865Z,95.00
2023-02-26T01:59:59.773Z,94.90
2023-02-26T02:04:59.717Z,95.00
2023-02-26T02:09:59.645Z,94.79
2023-02-26T02:14:59.587Z,94.90
2023-02-26T02:19:59.519Z,95.00
2023-02-26T02:24:59.455Z,95.00
2023-02-26T02:29:59.382Z,95.00
2023-02-26T02:34:59.325Z,94.90
2023-02-26T02:39:59.253Z,94.90
2023-02-26T02:44:59.210Z,95.00
2023-02-26T02:49:59.126Z,95.11
2023-02-26T02:54:59.072Z,95.36
2023-02-26T02:59:59.001Z,95.57
2023-02-26T03:04:58.944Z,95.67
2023-02-26T03:09:58.879Z,95.78
2023-02-26T03:14:58.821Z,95.67
2023-02-26T03:19:58.748Z,95.73
2023-02-26T03:24:58.703Z,95.78
2023-02-26T03:29:58.637Z,95.88
2023-02-26T03:34:58.571Z,96.09
2023-02-26T03:39:58.500Z,95.67
2023-02-26T03:44:58.446Z,95.47
2023-02-26T03:49:58.392Z,94.73
2023-02-26T03:54:58.318Z,94.63
2023-02-26T03:59:58.246Z,93.90
2023-02-26T04:04:58.192Z,93.58
2023-02-26T04:09:58.127Z,93.27
2023-02-26T04:14:58.071Z,93.27
2023-02-26T04:19:57.993Z,93.06
2023-02-26T04:24:57.935Z,92.96
2023-02-26T04:29:57.874Z,92.64
2023-02-26T04:34:57.806Z,92.64
2023-02-26T04:39:57.733Z,92.33
2023-02-26T04:44:57.664Z,92.12
2023-02-26T04:49:57.601Z,92.01
2023-02-26T04:54:57.531Z,92.12
2023-02-26T04:59:57.485Z,92.01
2023-02-26T05:04:57.405Z,92.33
2023-02-26T05:09:57.372Z,92.85
2023-02-26T05:14:57.285Z,92.85
2023-02-26T05:19:57.227Z,93.17
2023-02-26T05:24:57.152Z,93.27
2023-02-26T05:29:57.101Z,93.48
2023-02-26T05:34:57.032Z,93.79
2023-02-26T05:39:56.969Z,93.90
2023-02-26T05:44:56.899Z,93.69
2023-02-26T05:49:56.842Z,93.69
2023-02-26T05:54:56.776Z,93.58
2023-02-26T05:59:56.713Z,93.79
2023-02-26T06:04:56.642Z,93.79
2023-02-26T06:09:56.584Z,93.48
2023-02-26T06:14:56.515Z,93.27
2023-02-26T06:19:56.456Z,93.06
2023-02-26T06:24:56.400Z,92.85
2023-02-26T06:29:56.333Z,92.43
2023-02-26T06:34:56.276Z,92.23
2023-02-26T06:39:56.221Z,92.12
2023-02-26T06:44:56.142Z,92.08
2023-02-26T06:49:56.082Z,91.76
2023-02-26T06:54:56.016Z,91.45
2023-02-26T06:59:56.051Z,91.14
2023-02-26T07:04:55.884Z,90.51
2023-02-26T07:09:55.826Z,90.47
2023-02-26T07:14:55.757Z,91.93
2023-02-26T07:19:55.699Z,90.16
2023-02-26T07:24:55.628Z,89.73
2023-02-26T07:29:55.571Z,89.53
2023-02-26T07:34:55.500Z,89.17
2023-02-26T07:39:55.442Z,88.86
2023-02-26T07:44:55.370Z,87.92
2023-02-26T07:49:55.322Z,87.81
2023-02-26T07:54:55.256Z,87.25
2023-02-26T07:59:55.184Z,86.52
2023-02-26T08:04:55.110Z,85.96
2023-02-26T08:09:55.063Z,85.65
2023-02-26T08:14:54.995Z,85.40
2023-02-26T08:19:54.928Z,84.77
2023-02-26T08:24:54.854Z,83.52
2023-02-26T08:29:54.806Z,83.46
2023-02-26T08:34:54.725Z,84.36
2023-02-26T08:39:54.671Z,82.80
2023-02-26T08:44:54.614Z,83.80
2023-02-26T08:49:54.546Z,83.80
2023-02-26T08:54:54.474Z,82.86
2023-02-26T08:59:54.424Z,83.59
2023-02-26T09:04:54.347Z,83.14
2023-02-26T09:09:54.294Z,82.40
2023-02-26T09:14:54.220Z,81.75
2023-02-26T09:19:54.165Z,79.98
2023-02-26T09:24:54.169Z,80.18
2023-02-26T09:29:54.037Z,79.45
2023-02-26T09:34:53.971Z,79.62
2023-02-26T09:39:54.938Z,79.31
2023-02-26T09:44:53.840Z,80.01
2023-02-26T09:49:53.799Z,80.28
2023-02-26T09:54:53.716Z,78.89
2023-02-26T09:59:53.671Z,78.54
2023-02-26T10:04:53.598Z,78.19
2023-02-26T10:09:53.569Z,76.33
2023-02-26T10:14:53.471Z,75.08
2023-02-26T10:19:53.419Z,73.45
2023-02-26T10:24:53.342Z,73.42
2023-02-26T10:29:53.287Z,73.11
2023-02-26T10:34:53.207Z,72.48
2023-02-26T10:39:53.160Z,72.55
2023-02-26T10:44:53.085Z,71.00
2023-02-26T10:49:53.051Z,70.58
2023-02-26T10:54:52.954Z,70.86
2023-02-26T10:59:52.895Z,71.03
2023-02-26T11:05:05.861Z,68.93
2023-02-26T11:09:53.798Z,69.45
2023-02-26T11:14:52.708Z,68.07
2023-02-26T11:19:52.640Z,66.21
2023-02-26T11:24:52.569Z,66.10
2023-02-26T11:29:52.512Z,65.06
2023-02-26T11:34:52.444Z,64.75
2023-02-26T11:39:52.392Z,65.45
2023-02-26T11:44:52.325Z,65.83
2023-02-26T11:49:52.256Z,66.25
2023-02-26T11:54:52.209Z,66.90
2023-02-26T11:59:52.128Z,67.00
2023-02-26T12:04:52.052Z,66.51
2023-02-26T12:09:51.997Z,66.13
2023-02-26T12:14:51.916Z,66.99
2023-02-26T12:19:51.859Z,67.61
2023-02-26T12:24:51.852Z,65.96
2023-02-26T12:29:51.741Z,65.54
2023-02-26T12:34:51.660Z,65.51
2023-02-26T12:39:51.605Z,65.61
2023-02-26T12:44:51.530Z,66.72
2023-02-26T12:49:51.474Z,64.96
2023-02-26T12:54:51.399Z,64.72
2023-02-26T12:59:51.340Z,65.35
2023-02-26T13:04:51.267Z,77.28
2023-02-26T13:09:51.213Z,62.49
2023-02-26T13:14:51.141Z,61.59
2023-02-26T13:19:51.084Z,63.72
2023-02-26T13:24:51.008Z,64.99
2023-02-26T13:29:50.950Z,65.75
2023-02-26T13:34:50.881Z,66.16
2023-02-26T13:39:50.815Z,65.44
2023-02-26T13:44:50.754Z,64.89
2023-02-26T13:49:50.687Z,65.96
2023-02-26T13:54:50.615Z,66.37
2023-02-26T13:59:50.556Z,66.44
2023-02-26T14:04:50.525Z,64.44
2023-02-26T14:09:50.431Z,64.03
2023-02-26T14:14:50.368Z,63.51
2023-02-26T14:19:50.299Z,61.42
2023-02-26T14:24:50.233Z,65.97
2023-02-26T14:29:50.167Z,70.40
2023-02-26T14:34:50.100Z,72.69
2023-02-26T14:39:50.054Z,72.27
2023-02-26T14:44:49.962Z,73.83
2023-02-26T14:49:49.918Z,74.04
2023-02-26T14:54:49.845Z,71.64
2023-02-26T14:59:49.781Z,71.96
2023-02-26T15:04:49.712Z,80.28
2023-02-26T15:09:49.654Z,81.67
2023-02-26T15:14:49.589Z,81.81
2023-02-26T15:19:49.526Z,80.04
2023-02-26T15:24:49.455Z,79.45
2023-02-26T15:29:49.408Z,78.93
2023-02-26T15:34:49.330Z,78.52
2023-02-26T15:39:49.277Z,77.89
2023-02-26T15:44:56.776Z,77.13
2023-02-26T15:49:49.161Z,77.23
2023-02-26T15:54:49.086Z,75.46
2023-02-26T15:59:49.027Z,74.94
2023-02-26T16:04:48.969Z,73.48
2023-02-26T16:09:48.903Z,74.10
2023-02-26T16:14:48.836Z,75.04
2023-02-26T16:19:48.792Z,75.29
2023-02-26T16:24:48.725Z,75.70
2023-02-26T16:29:48.646Z,76.15
2023-02-26T16:34:48.578Z,75.64
2023-02-26T16:39:48.519Z,75.67
2023-02-26T16:44:48.447Z,75.77
2023-02-26T16:49:48.385Z,76.09
2023-02-26T16:54:48.344Z,76.71
2023-02-26T16:59:48.257Z,76.40
2023-02-26T17:04:48.188Z,76.19
2023-02-26T17:09:48.126Z,76.30
2023-02-26T17:14:48.130Z,75.87
2023-02-26T17:19:47.998Z,76.09
2023-02-26T17:24:47.935Z,75.91
2023-02-26T17:29:47.874Z,76.54
2023-02-26T17:34:47.801Z,76.75
2023-02-26T17:39:47.744Z,77.41
2023-02-26T17:44:47.667Z,77.82
2023-02-26T17:49:47.632Z,78.03
2023-02-26T17:54:47.544Z,78.90
2023-02-26T17:59:47.492Z,79.63
2023-02-26T18:04:47.455Z,80.92
2023-02-26T18:09:47.373Z,81.34
2023-02-26T18:14:47.296Z,81.24
2023-02-26T18:19:47.238Z,80.92
2023-02-26T18:24:47.166Z,82.53
2023-02-26T18:29:47.118Z,82.95
2023-02-26T18:34:47.039Z,83.57
2023-02-26T18:39:46.984Z,84.45
2023-02-26T18:44:46.938Z,85.29
2023-02-26T18:49:46.856Z,85.80
2023-02-26T18:54:46.791Z,85.32
2023-02-26T18:59:46.730Z,85.43
2023-02-26T19:04:47.345Z,85.11
2023-02-26T19:09:46.608Z,84.38
2023-02-26T19:14:46.537Z,84.80
2023-02-26T19:19:46.477Z,84.59
2023-02-26T19:24:46.400Z,84.42
2023-02-26T19:29:46.345Z,84.32
2023-02-26T19:34:46.275Z,84.84
2023-02-26T19:39:46.243Z,84.32
2023-02-26T19:44:46.147Z,85.57
2023-02-26T19:49:46.111Z,86.13
2023-02-26T19:54:46.019Z,86.34
2023-02-26T19:59:45.967Z,85.40
2023-02-26T20:04:45.897Z,87.22
2023-02-26T20:09:46.757Z,88.16
2023-02-26T20:14:45.768Z,88.89
2023-02-26T20:19:45.706Z,89.56
2023-02-26T20:24:45.669Z,89.88
2023-02-26T20:29:45.580Z,90.09
2023-02-26T20:34:45.522Z,90.23
2023-02-26T20:39:45.449Z,90.55
2023-02-26T20:44:45.397Z,90.65
2023-02-26T20:49:45.328Z,91.00
2023-02-26T20:54:45.269Z,90.69
2023-02-26T20:59:45.196Z,90.38
2023-02-26T21:04:45.143Z,90.59
2023-02-26T21:09:45.068Z,90.80
2023-02-26T21:14:45.010Z,90.69
2023-02-26T21:19:44.947Z,90.63
2023-02-26T21:24:44.888Z,90.94
2023-02-26T21:29:44.821Z,90.99
2023-02-26T21:34:44.784Z,91.19
2023-02-26T21:39:44.713Z,91.41
2023-02-26T21:44:44.626Z,91.51
2023-02-26T21:49:44.570Z,91.09
2023-02-26T21:54:44.495Z,90.57
2023-02-26T21:59:44.426Z,90.71
2023-02-26T22:04:44.361Z,90.61
2023-02-26T22:09:46.228Z,91.03
2023-02-26T22:14:44.239Z,91.34
2023-02-26T22:19:44.155Z,91.38
2023-02-26T22:24:44.102Z,91.70
2023-02-26T22:29:44.025Z,92.12
2023-02-26T22:34:45.313Z,92.65
2023-02-26T22:39:43.898Z,92.68
2023-02-26T22:44:43.841Z,92.48
2023-02-26T22:49:43.770Z,92.16
2023-02-26T22:54:43.719Z,92.16
2023-02-26T22:59:43.650Z,92.05
2023-02-26T23:04:43.642Z,92.37
2023-02-26T23:09:43.526Z,92.73
2023-02-26T23:14:43.467Z,93.04
2023-02-26T23:19:43.398Z,93.04
2023-02-26T23:24:43.354Z,92.94
2023-02-26T23:29:43.278Z,92.62
2023-02-26T23:34:43.222Z,92.56
2023-02-26T23:39:43.149Z,92.77
2023-02-26T23:44:43.092Z,92.87
2023-02-26T23:49:43.029Z,92.87
2023-02-26T23:54:42.972Z,92.77
2023-02-26T23:59:42.898Z,92.87
